Time;durP1;ratioP1;P1;durP2;ratioP2;P2;SDS_P1;SDS_P2;PMS_P1;PMS_P2;Temp;Humidity;BMP_temperature;BMP_pressure;BME280_temperature;BME280_humidity;BME280_pressure;Samples;Min_cycle;Max_cycle;Signal;HPM_P1;HPM_P2
2023/07/30 00:00:10;;;;;;;2.78;1.30;;;23.90;77.00;;;;;;2525130;54;21314;-69
2023/07/30 00:02:38;;;;;;;3.12;1.15;;;23.90;77.00;;;;;;2524182;54;21437;-69
2023/07/30 00:05:09;;;;;;;2.17;1.12;;;23.90;77.00;;;;;;2513597;54;20922;-69
2023/07/30 00:07:35;;;;;;;4.43;1.60;;;24.00;76.90;;;;;;2495797;54;21002;-70
2023/07/30 00:10:02;;;;;;;3.62;1.42;;;23.90;76.60;;;;;;2498497;54;20944;-68
2023/07/30 00:12:29;;;;;;;2.75;1.42;;;23.90;76.60;;;;;;2525503;54;21016;-67
2023/07/30 00:14:55;;;;;;;2.72;1.50;;;23.90;76.50;;;;;;2295812;55;20928;-70
2023/07/30 00:17:21;;;;;;;2.67;1.40;;;23.90;76.40;;;;;;2525414;54;20920;-69
2023/07/30 00:19:48;;;;;;;2.40;1.20;;;23.90;76.50;;;;;;2292009;55;21028;-68
2023/07/30 00:22:14;;;;;;;2.83;1.27;;;23.80;76.40;;;;;;2293013;55;21493;-70
2023/07/30 00:24:41;;;;;;;2.37;1.20;;;23.80;76.40;;;;;;2525039;54;20941;-69
2023/07/30 00:27:08;;;;;;;2.45;1.27;;;23.80;76.40;;;;;;2525713;54;20913;-68
2023/07/30 00:29:36;;;;;;;3.22;1.12;;;23.80;76.40;;;;;;2524531;54;20960;-68
2023/07/30 00:32:04;;;;;;;3.20;1.40;;;23.80;76.50;;;;;;2297528;55;21011;-68
2023/07/30 00:34:31;;;;;;;3.47;1.73;;;23.80;76.50;;;;;;2274226;55;20961;-68
2023/07/30 00:37:01;;;;;;;2.60;1.40;;;23.70;76.40;;;;;;2502837;54;21001;-70
2023/07/30 00:39:28;;;;;;;2.90;1.40;;;23.70;76.10;;;;;;2272904;55;20971;-69
2023/07/30 00:41:54;;;;;;;2.33;1.23;;;23.70;76.40;;;;;;2526115;54;20899;-69
2023/07/30 00:44:21;;;;;;;2.60;1.40;;;23.70;76.60;;;;;;2497084;54;21918;-67
2023/07/30 00:46:49;;;;;;;2.70;1.20;;;23.70;76.50;;;;;;2524394;54;20932;-69
2023/07/30 00:49:15;;;;;;;2.60;1.35;;;23.70;76.60;;;;;;2500068;54;21368;-68
2023/07/30 00:51:42;;;;;;;2.62;1.45;;;23.60;76.60;;;;;;2522827;54;21004;-68
2023/07/30 00:54:12;;;;;;;2.53;1.30;;;23.70;76.70;;;;;;2272058;55;20932;-68
2023/07/30 00:56:42;;;;;;;3.63;1.30;;;23.60;76.70;;;;;;2293423;55;21338;-69
2023/07/30 00:59:08;;;;;;;3.10;1.48;;;23.60;76.70;;;;;;2292285;55;20920;-68
2023/07/30 01:01:34;;;;;;;2.87;1.60;;;23.60;76.70;;;;;;2288320;55;21041;-68
2023/07/30 01:04:02;;;;;;;2.40;1.23;;;23.60;76.70;;;;;;2277080;55;21374;-69
2023/07/30 01:06:31;;;;;;;2.75;1.25;;;23.60;76.70;;;;;;2293836;55;20964;-71
2023/07/30 01:09:00;;;;;;;2.50;1.10;;;23.60;76.80;;;;;;2524431;54;20924;-68
2023/07/30 01:11:26;;;;;;;2.75;1.30;;;23.60;76.80;;;;;;2506356;54;21038;-71
2023/07/30 01:13:53;;;;;;;2.45;1.00;;;23.60;77.50;;;;;;2275198;55;21212;-71
2023/07/30 01:16:20;;;;;;;2.95;1.25;;;23.60;76.90;;;;;;2282963;55;21479;-70
2023/07/30 01:18:47;;;;;;;3.15;1.40;;;23.60;77.00;;;;;;2525849;54;20952;-69
2023/07/30 01:21:14;;;;;;;2.85;1.30;;;23.60;76.90;;;;;;2499693;54;21060;-71
2023/07/30 01:23:41;;;;;;;2.08;1.10;;;23.60;76.80;;;;;;2526094;54;20956;-69
2023/07/30 01:26:20;;;;;;;2.40;1.20;;;23.60;76.90;;;;;;2525946;54;21240;-69
2023/07/30 01:28:49;;;;;;;2.08;1.10;;;23.60;76.30;;;;;;2525098;54;21007;-71
2023/07/30 01:31:16;;;;;;;2.20;1.23;;;23.60;77.00;;;;;;2276556;55;21201;-70
2023/07/30 01:33:43;;;;;;;2.83;1.52;;;23.60;77.00;;;;;;2509705;54;20933;-68
2023/07/30 01:36:11;;;;;;;3.05;1.10;;;23.60;77.10;;;;;;2293576;55;20932;-69
2023/07/30 01:38:38;;;;;;;3.17;1.35;;;23.60;77.00;;;;;;2513976;54;20957;-68
2023/07/30 01:41:05;;;;;;;3.05;1.37;;;23.60;77.10;;;;;;2276192;55;21878;-67
2023/07/30 01:43:31;;;;;;;2.25;1.00;;;23.50;77.00;;;;;;2526382;54;20960;-67
2023/07/30 01:45:59;;;;;;;2.53;1.10;;;23.60;77.10;;;;;;2286890;55;21732;-70
2023/07/30 01:48:26;;;;;;;2.40;1.20;;;23.50;77.10;;;;;;2503219;54;21941;-69
2023/07/30 01:50:53;;;;;;;1.92;1.10;;;23.50;77.20;;;;;;2503114;54;21086;-70
2023/07/30 01:53:19;;;;;;;1.70;0.82;;;23.60;77.40;;;;;;2514245;54;20941;-70
2023/07/30 01:55:46;;;;;;;2.25;1.00;;;23.50;77.40;;;;;;2281486;55;20952;-70
2023/07/30 01:58:15;;;;;;;2.58;1.08;;;23.60;77.50;;;;;;2524194;54;21071;-71
2023/07/30 02:00:41;;;;;;;5.18;1.00;;;23.60;77.50;;;;;;2508583;54;21231;-70
2023/07/30 02:03:07;;;;;;;2.25;1.12;;;23.50;77.40;;;;;;2509557;54;20956;-71
2023/07/30 02:05:34;;;;;;;2.62;1.20;;;23.60;77.50;;;;;;2295007;55;21729;-71
2023/07/30 02:08:01;;;;;;;1.85;0.80;;;23.60;77.40;;;;;;2292898;55;20908;-73
2023/07/30 02:10:28;;;;;;;2.17;1.00;;;23.50;77.20;;;;;;2522086;54;21919;-70
2023/07/30 02:12:54;;;;;;;1.48;0.73;;;23.50;77.20;;;;;;2293409;55;21441;-72
2023/07/30 02:15:21;;;;;;;4.05;1.15;;;23.50;77.10;;;;;;2273193;55;21017;-72
2023/07/30 02:17:47;;;;;;;1.80;1.00;;;23.50;77.10;;;;;;2507694;54;20953;-71
2023/07/30 02:20:14;;;;;;;2.20;1.10;;;23.50;77.20;;;;;;2283049;55;20969;-71
2023/07/30 02:22:43;;;;;;;2.28;0.98;;;23.50;77.30;;;;;;2274351;55;20973;-69
2023/07/30 02:25:10;;;;;;;1.90;0.80;;;23.50;77.10;;;;;;2525108;54;21430;-70
2023/07/30 02:27:37;;;;;;;1.65;0.75;;;23.50;78.00;;;;;;2294097;55;20916;-71
2023/07/30 02:30:04;;;;;;;2.10;1.00;;;23.50;77.30;;;;;;2292791;55;20993;-70
2023/07/30 02:32:30;;;;;;;2.40;1.10;;;23.50;77.30;;;;;;2525150;54;21464;-70
2023/07/30 02:35:00;;;;;;;2.20;1.00;;;23.50;77.40;;;;;;2287687;55;21041;-70
2023/07/30 02:37:27;;;;;;;2.30;1.12;;;23.50;78.10;;;;;;2505294;54;20888;-71
2023/07/30 02:39:53;;;;;;;2.42;1.10;;;23.40;77.30;;;;;;2293761;55;20976;-71
2023/07/30 02:42:21;;;;;;;2.10;1.00;;;23.50;77.40;;;;;;2291889;55;21838;-71
2023/07/30 02:44:47;;;;;;;2.20;1.00;;;23.50;77.40;;;;;;2514064;54;21719;-70
2023/07/30 02:47:17;;;;;;;2.50;1.20;;;23.40;77.30;;;;;;2502705;54;21025;-71
2023/07/30 02:49:43;;;;;;;2.80;1.25;;;23.50;77.50;;;;;;2509306;54;20944;-70
2023/07/30 02:52:10;;;;;;;2.12;1.02;;;23.40;77.40;;;;;;2292321;55;20912;-72
2023/07/30 02:54:37;;;;;;;2.42;1.10;;;23.40;77.30;;;;;;2282218;55;21077;-71
2023/07/30 02:57:03;;;;;;;2.30;1.20;;;23.40;77.30;;;;;;2283764;55;20948;-71
2023/07/30 02:59:31;;;;;;;2.40;1.10;;;23.40;77.30;;;;;;2526425;54;20897;-70
2023/07/30 03:01:57;;;;;;;3.05;1.30;;;23.40;77.30;;;;;;2518528;54;20936;-71
2023/07/30 03:04:24;;;;;;;3.10;1.40;;;23.40;77.40;;;;;;2526317;54;21011;-69
2023/07/30 03:06:51;;;;;;;2.55;1.15;;;23.40;77.40;;;;;;2500984;54;20942;-70
2023/07/30 03:09:17;;;;;;;2.40;1.00;;;23.40;77.50;;;;;;2292821;55;20941;-70
2023/07/30 03:11:45;;;;;;;3.08;1.08;;;23.40;77.50;;;;;;2292449;55;20944;-70
2023/07/30 03:14:11;;;;;;;2.00;0.90;;;23.40;77.50;;;;;;2276549;55;20954;-68
2023/07/30 03:16:38;;;;;;;2.05;0.90;;;23.40;77.60;;;;;;2272828;55;20944;-70
2023/07/30 03:19:08;;;;;;;2.40;1.20;;;23.40;77.60;;;;;;2524535;54;20905;-69
2023/07/30 03:21:41;;;;;;;2.28;0.90;;;23.40;77.40;;;;;;2526005;54;20976;-70
2023/07/30 03:24:07;;;;;;;2.33;1.10;;;23.40;77.40;;;;;;2492510;54;21330;-69
2023/07/30 03:26:34;;;;;;;2.47;1.20;;;23.40;77.60;;;;;;2285090;55;20948;-70
2023/07/30 03:29:03;;;;;;;2.15;1.10;;;23.30;77.40;;;;;;2525432;54;21360;-70
2023/07/30 03:31:29;;;;;;;2.20;1.10;;;23.30;77.30;;;;;;2284436;55;20929;-70
2023/07/30 03:33:56;;;;;;;2.30;1.20;;;23.30;77.30;;;;;;2282254;55;21489;-70
2023/07/30 03:36:22;;;;;;;2.78;1.40;;;23.30;77.90;;;;;;2273528;55;21262;-70
2023/07/30 03:38:53;;;;;;;3.00;1.37;;;23.30;77.10;;;;;;2293816;55;21318;-71
2023/07/30 03:41:22;;;;;;;2.50;1.08;;;23.30;76.90;;;;;;2517568;54;20982;-72
2023/07/30 03:43:48;;;;;;;2.30;1.12;;;23.20;76.90;;;;;;2507481;54;20988;-72
2023/07/30 03:46:15;;;;;;;2.25;1.15;;;23.30;77.00;;;;;;2294457;56;22430;-71
2023/07/30 03:48:42;;;;;;;2.30;1.20;;;23.20;77.00;;;;;;2292531;55;20988;-71
2023/07/30 03:51:08;;;;;;;2.75;1.48;;;23.20;77.10;;;;;;2284009;55;20990;-71
2023/07/30 03:53:37;;;;;;;2.53;1.40;;;23.20;76.90;;;;;;2281535;55;22041;-71
2023/07/30 03:56:04;;;;;;;2.58;1.50;;;23.20;76.90;;;;;;2502253;54;20979;-71
2023/07/30 03:58:30;;;;;;;2.30;1.25;;;23.10;76.90;;;;;;2280671;55;21077;-69
2023/07/30 04:00:57;;;;;;;2.72;1.45;;;23.20;77.00;;;;;;2507085;54;21089;-71
2023/07/30 04:03:23;;;;;;;2.80;1.30;;;23.10;77.10;;;;;;2501622;54;1325275;-72
2023/07/30 04:05:50;;;;;;;2.72;1.12;;;23.10;77.20;;;;;;2284428;55;21744;-71
2023/07/30 04:08:16;;;;;;;2.10;1.02;;;23.10;77.10;;;;;;2511515;54;21406;-69
2023/07/30 04:10:42;;;;;;;2.72;1.10;;;23.10;77.00;;;;;;2526230;54;20979;-71
2023/07/30 04:13:09;;;;;;;2.17;1.10;;;23.10;76.90;;;;;;2280877;55;20946;-71
2023/07/30 04:15:35;;;;;;;2.90;1.37;;;23.10;76.90;;;;;;2291174;55;20936;-72
2023/07/30 04:18:02;;;;;;;3.47;1.52;;;23.00;76.80;;;;;;2293047;55;20956;-70
2023/07/30 04:20:28;;;;;;;3.10;1.30;;;23.00;76.80;;;;;;2498924;54;21021;-68
2023/07/30 04:22:54;;;;;;;3.42;1.67;;;23.00;76.90;;;;;;2521305;54;21011;-70
2023/07/30 04:25:21;;;;;;;2.80;1.40;;;23.00;77.00;;;;;;2273120;55;20944;-70
2023/07/30 04:27:47;;;;;;;4.70;1.58;;;23.00;77.10;;;;;;2273948;55;21022;-69
2023/07/30 04:30:13;;;;;;;3.67;1.50;;;23.00;77.10;;;;;;2274047;55;21435;-71
2023/07/30 04:32:40;;;;;;;2.58;1.30;;;22.90;77.10;;;;;;2292681;55;20965;-69
2023/07/30 04:35:07;;;;;;;2.42;1.20;;;22.90;77.20;;;;;;2525530;54;20960;-69
2023/07/30 04:37:34;;;;;;;2.67;1.20;;;22.90;77.30;;;;;;2293402;55;21473;-71
2023/07/30 04:40:00;;;;;;;2.70;1.40;;;22.90;77.40;;;;;;2500983;54;20992;-69
2023/07/30 04:42:26;;;;;;;2.50;1.12;;;22.90;77.50;;;;;;2525446;54;21016;-70
2023/07/30 04:44:52;;;;;;;2.00;0.95;;;22.90;77.50;;;;;;2293705;55;21441;-69
2023/07/30 04:47:19;;;;;;;2.20;1.15;;;22.90;77.60;;;;;;2291219;55;21881;-71
2023/07/30 04:49:48;;;;;;;2.40;1.20;;;22.90;77.60;;;;;;2498397;54;21397;-72
2023/07/30 04:52:15;;;;;;;1.90;0.90;;;22.90;77.70;;;;;;2287965;55;21047;-69
2023/07/30 04:54:41;;;;;;;2.30;1.02;;;22.90;77.70;;;;;;2507650;54;21056;-68
2023/07/30 04:57:07;;;;;;;2.00;1.00;;;22.90;77.70;;;;;;2514935;54;21009;-71
2023/07/30 04:59:34;;;;;;;2.45;1.08;;;22.90;77.80;;;;;;2279438;55;20952;-70
2023/07/30 05:02:00;;;;;;;2.17;1.08;;;22.80;77.70;;;;;;2292755;55;21743;-69
2023/07/30 05:04:27;;;;;;;2.35;1.12;;;22.80;77.70;;;;;;2525878;54;20900;-71
2023/07/30 05:06:54;;;;;;;2.30;1.10;;;22.90;77.70;;;;;;2510756;54;21045;-71
2023/07/30 05:09:21;;;;;;;3.75;1.40;;;22.90;77.70;;;;;;2513086;54;20980;-69
2023/07/30 05:11:48;;;;;;;2.50;1.45;;;22.80;77.70;;;;;;2285391;55;21462;-72
2023/07/30 05:14:17;;;;;;;2.33;1.20;;;22.80;77.80;;;;;;2268450;55;21820;-70
2023/07/30 05:16:44;;;;;;;2.20;1.05;;;22.80;77.80;;;;;;2269110;55;20965;-71
2023/07/30 05:19:11;;;;;;;3.10;1.40;;;22.80;78.00;;;;;;2518068;54;20945;-73
2023/07/30 05:21:38;;;;;;;2.37;1.20;;;22.90;78.00;;;;;;2282163;55;21466;-71
2023/07/30 05:24:04;;;;;;;2.17;1.17;;;22.90;78.20;;;;;;2283784;55;21059;-70
2023/07/30 05:26:31;;;;;;;2.47;1.08;;;22.80;78.20;;;;;;2500857;54;20965;-71
2023/07/30 05:28:57;;;;;;;2.47;1.12;;;22.90;78.40;;;;;;2290043;55;21095;-71
2023/07/30 05:31:23;;;;;;;2.25;1.15;;;22.90;78.40;;;;;;2524847;54;21514;-73
2023/07/30 05:33:50;;;;;;;2.35;1.20;;;22.90;78.40;;;;;;2525545;54;20996;-73
2023/07/30 05:36:16;;;;;;;2.12;1.02;;;22.90;78.40;;;;;;2274928;55;21010;-71
2023/07/30 05:38:42;;;;;;;2.40;1.20;;;22.90;78.40;;;;;;2291455;55;21514;-70
2023/07/30 05:41:10;;;;;;;2.37;1.23;;;22.90;78.40;;;;;;2504080;54;21030;-72
2023/07/30 05:43:36;;;;;;;2.28;1.10;;;23.00;78.50;;;;;;2517688;54;20965;-70
2023/07/30 05:46:02;;;;;;;2.90;0.93;;;23.00;78.50;;;;;;2507855;54;20909;-70
2023/07/30 05:48:29;;;;;;;2.03;0.93;;;23.00;78.40;;;;;;2525222;54;21422;-71
2023/07/30 05:50:59;;;;;;;2.30;1.02;;;23.00;78.30;;;;;;2292579;55;20932;-69
2023/07/30 05:53:25;;;;;;;2.20;1.08;;;23.00;78.20;;;;;;2520726;54;21043;-70
2023/07/30 05:55:53;;;;;;;2.67;1.27;;;23.00;78.20;;;;;;2269604;55;21120;-71
2023/07/30 05:58:19;;;;;;;2.62;1.40;;;23.00;78.20;;;;;;2281763;55;21330;-72
2023/07/30 06:00:45;;;;;;;2.05;1.08;;;23.00;78.20;;;;;;2292611;55;21012;-70
2023/07/30 06:03:12;;;;;;;2.70;1.40;;;23.00;78.20;;;;;;2269459;55;21045;-70
2023/07/30 06:05:41;;;;;;;2.90;1.58;;;23.10;78.20;;;;;;2522310;54;21421;-69
2023/07/30 06:08:08;;;;;;;2.40;1.30;;;23.00;77.90;;;;;;2280625;55;21040;-70
2023/07/30 06:10:36;;;;;;;2.78;1.52;;;23.10;78.20;;;;;;2288110;55;20935;-71
2023/07/30 06:13:06;;;;;;;2.17;1.10;;;23.00;78.10;;;;;;2498047;54;20985;-71
2023/07/30 06:15:33;;;;;;;2.50;1.20;;;23.00;78.10;;;;;;2519935;54;21014;-69
2023/07/30 06:18:01;;;;;;;2.45;1.33;;;23.10;78.30;;;;;;2503518;54;20988;-69
2023/07/30 06:20:28;;;;;;;2.58;1.50;;;23.10;78.20;;;;;;2524229;54;20964;-72
2023/07/30 06:22:54;;;;;;;2.92;1.20;;;23.10;78.20;;;;;;2292315;55;21007;-70
2023/07/30 06:25:21;;;;;;;4.07;1.60;;;23.10;78.20;;;;;;2526980;54;20944;-70
2023/07/30 06:27:47;;;;;;;2.58;1.17;;;23.10;78.30;;;;;;2283733;55;21037;-71
2023/07/30 06:30:14;;;;;;;3.58;1.05;;;23.10;78.40;;;;;;2281625;55;20973;-70
2023/07/30 06:32:40;;;;;;;2.55;1.15;;;23.10;78.50;;;;;;2276563;55;20939;-70
2023/07/30 06:35:07;;;;;;;2.78;1.37;;;23.10;78.80;;;;;;2526323;54;20992;-70
2023/07/30 06:37:36;;;;;;;3.03;1.30;;;23.20;79.60;;;;;;2293187;56;21020;-70
2023/07/30 06:40:06;;;;;;;2.40;1.20;;;23.20;78.90;;;;;;2502169;54;21061;-70
2023/07/30 06:42:32;;;;;;;2.60;1.25;;;23.20;79.10;;;;;;2279944;55;20919;-72
2023/07/30 06:44:59;;;;;;;2.42;1.20;;;23.30;79.20;;;;;;2526448;54;21349;-70
2023/07/30 06:47:26;;;;;;;2.95;1.20;;;23.30;79.30;;;;;;2525410;54;20948;-70
2023/07/30 06:49:52;;;;;;;3.25;1.33;;;23.40;79.40;;;;;;2286936;55;21502;-72
2023/07/30 06:52:20;;;;;;;2.47;1.30;;;23.40;79.30;;;;;;2275082;55;21452;-69
2023/07/30 06:54:47;;;;;;;2.45;1.20;;;23.40;79.20;;;;;;2498054;54;20940;-69
2023/07/30 06:57:14;;;;;;;3.10;1.50;;;23.40;79.10;;;;;;2294959;55;21081;-69
2023/07/30 06:59:40;;;;;;;3.40;1.70;;;23.50;79.20;;;;;;2505657;54;20981;-72
2023/07/30 07:02:07;;;;;;;2.65;1.40;;;23.50;79.20;;;;;;2494473;54;20946;-70
2023/07/30 07:04:36;;;;;;;2.72;1.35;;;23.50;79.20;;;;;;2522345;54;21452;-69
2023/07/30 07:07:03;;;;;;;2.25;1.20;;;23.60;79.20;;;;;;2499856;54;20932;-70
2023/07/30 07:09:30;;;;;;;2.67;1.10;;;23.60;79.10;;;;;;2274741;55;21745;-70
2023/07/30 07:11:56;;;;;;;3.80;1.33;;;23.60;79.20;;;;;;2507144;54;20965;-71
2023/07/30 07:14:22;;;;;;;2.58;1.30;;;23.70;79.20;;;;;;2514216;54;21080;-69
2023/07/30 07:16:49;;;;;;;2.70;1.48;;;23.70;79.10;;;;;;2293680;55;20940;-71
2023/07/30 07:19:15;;;;;;;3.15;1.50;;;23.80;79.20;;;;;;2273055;55;21804;-70
2023/07/30 07:21:42;;;;;;;2.80;1.58;;;23.80;79.00;;;;;;2293590;55;20912;-72
2023/07/30 07:24:08;;;;;;;2.67;1.42;;;23.80;78.70;;;;;;2502056;54;21014;-70
2023/07/30 07:26:35;;;;;;;2.70;1.30;;;23.80;78.50;;;;;;2274066;55;21029;-68
2023/07/30 07:29:03;;;;;;;2.35;1.20;;;23.90;78.60;;;;;;2287266;55;20936;-69
2023/07/30 07:31:35;;;;;;;3.60;1.55;;;23.90;78.60;;;;;;2524647;54;20929;-70
2023/07/30 07:34:03;;;;;;;2.78;1.35;;;23.90;78.50;;;;;;2524313;54;20981;-69
2023/07/30 07:36:29;;;;;;;3.10;1.60;;;23.90;78.20;;;;;;2289858;55;20969;-71
2023/07/30 07:38:56;;;;;;;3.47;1.65;;;23.90;78.00;;;;;;2276789;55;21012;-70
2023/07/30 07:41:26;;;;;;;2.50;1.30;;;23.90;77.80;;;;;;2503689;54;21077;-69
2023/07/30 07:43:53;;;;;;;2.90;1.37;;;23.90;77.70;;;;;;2521002;54;20924;-70
2023/07/30 07:46:20;;;;;;;2.33;1.15;;;23.90;77.70;;;;;;2512803;54;20942;-72
2023/07/30 07:48:47;;;;;;;2.83;1.30;;;23.90;77.20;;;;;;2269209;55;20950;-74
2023/07/30 07:51:13;;;;;;;2.47;1.23;;;23.90;77.00;;;;;;2514896;54;20936;-69
2023/07/30 07:53:40;;;;;;;3.28;1.20;;;23.90;76.70;;;;;;2290035;55;20968;-70
2023/07/30 07:56:06;;;;;;;2.20;1.00;;;23.90;76.40;;;;;;2283205;55;21774;-71
2023/07/30 07:58:36;;;;;;;2.08;1.05;;;23.90;76.20;;;;;;2514701;54;21068;-71
2023/07/30 08:01:02;;;;;;;2.35;1.10;;;23.80;75.80;;;;;;2275334;55;20982;-72
2023/07/30 08:03:31;;;;;;;2.62;1.17;;;23.80;75.40;;;;;;2518515;54;20992;-70
2023/07/30 08:05:57;;;;;;;2.60;1.23;;;23.70;74.90;;;;;;2294147;55;21077;-71
2023/07/30 08:08:28;;;;;;;3.15;0.95;;;23.60;75.10;;;;;;2292933;55;20932;-70
2023/07/30 08:10:54;;;;;;;2.42;1.25;;;23.60;75.00;;;;;;2293776;55;21034;-69
2023/07/30 08:13:22;;;;;;;1.90;0.88;;;23.50;75.30;;;;;;2504462;54;21041;-69
2023/07/30 08:15:49;;;;;;;2.00;1.05;;;23.50;75.50;;;;;;2494084;54;20946;-72
2023/07/30 08:18:15;;;;;;;2.97;1.10;;;23.40;75.60;;;;;;2282303;55;21002;-71
2023/07/30 08:20:44;;;;;;;3.62;1.12;;;23.40;75.80;;;;;;2516015;54;20956;-70
2023/07/30 08:23:10;;;;;;;2.20;1.00;;;23.40;76.00;;;;;;2511849;54;20969;-70
2023/07/30 08:25:36;;;;;;;2.62;1.10;;;23.30;76.10;;;;;;2509994;54;20977;-69
2023/07/30 08:28:06;;;;;;;2.30;0.98;;;23.30;76.20;;;;;;2283973;55;20926;-70
2023/07/30 08:30:35;;;;;;;2.50;1.10;;;23.20;76.30;;;;;;2285305;55;20968;-70
2023/07/30 08:33:02;;;;;;;2.17;1.00;;;23.20;76.70;;;;;;2274038;55;21597;-70
2023/07/30 08:35:29;;;;;;;3.53;1.10;;;23.20;76.80;;;;;;2515038;54;21028;-73
2023/07/30 08:37:55;;;;;;;2.83;0.98;;;23.30;77.20;;;;;;2283401;55;20966;-70
2023/07/30 08:40:25;;;;;;;2.30;1.00;;;23.30;77.50;;;;;;2509778;54;20957;-72
2023/07/30 08:42:51;;;;;;;2.40;1.00;;;23.30;77.70;;;;;;2524624;54;20960;-72
2023/07/30 08:45:18;;;;;;;1.98;1.00;;;23.30;77.80;;;;;;2526447;54;20956;-75
2023/07/30 08:47:45;;;;;;;2.40;1.08;;;23.30;77.90;;;;;;2524948;54;21718;-73
2023/07/30 08:50:12;;;;;;;2.10;1.00;;;23.40;78.00;;;;;;2276938;55;20970;-74
2023/07/30 08:52:40;;;;;;;2.05;0.95;;;23.40;77.90;;;;;;2270746;55;21937;-72
2023/07/30 08:55:07;;;;;;;2.83;1.10;;;23.50;77.90;;;;;;2511094;54;20992;-74
2023/07/30 08:57:34;;;;;;;2.22;1.00;;;23.50;77.70;;;;;;2526091;54;21023;-75
2023/07/30 09:00:08;;;;;;;2.20;0.93;;;23.50;77.70;;;;;;2292101;55;20980;-74
2023/07/30 09:02:43;;;;;;;2.78;1.27;;;23.50;77.10;;;;;;2521317;54;21405;-72
2023/07/30 09:05:15;;;;;;;3.97;1.42;;;23.50;76.90;;;;;;2492572;55;21009;-74
2023/07/30 09:07:42;;;;;;;2.12;1.05;;;23.60;77.00;;;;;;2523802;54;20936;-74
2023/07/30 09:10:09;;;;;;;2.33;1.17;;;23.60;77.00;;;;;;2517783;54;21109;-74
2023/07/30 09:12:40;;;;;;;3.78;1.20;;;23.60;76.80;;;;;;2508517;54;21844;-74
2023/07/30 09:15:08;;;;;;;;;;;23.60;76.10;;;;;;2528777;54;20973;-73
2023/07/30 09:17:34;;;;;;;3.08;1.08;;;23.60;75.30;;;;;;2294026;55;20049;-72
2023/07/30 09:20:04;;;;;;;2.15;1.00;;;23.60;76.70;;;;;;2287361;55;20961;-72
2023/07/30 09:22:49;;;;;;;;;;;;;;;;;;;;;
2023/07/30 09:25:21;;;;;;;2.08;1.08;;;23.60;76.60;;;;;;2498593;54;20949;-75
2023/07/30 09:27:50;;;;;;;2.95;1.37;;;23.60;76.30;;;;;;2292787;55;20933;-71
2023/07/30 09:30:25;;;;;;;2.40;1.23;;;23.60;76.10;;;;;;2476014;55;20946;-74
2023/07/30 09:32:55;;;;;;;2.00;1.10;;;23.60;75.70;;;;;;2514520;54;20981;-74
2023/07/30 09:35:24;;;;;;;2.70;1.10;;;23.60;76.20;;;;;;2283593;55;21016;-76
2023/07/30 09:37:57;;;;;;;2.30;1.20;;;23.60;76.40;;;;;;2274606;55;20961;-75
2023/07/30 09:40:36;;;;;;;2.28;1.17;;;23.60;76.30;;;;;;2525301;54;21028;-73
2023/07/30 09:43:03;;;;;;;3.10;1.40;;;23.70;76.00;;;;;;2293566;55;20920;-73
2023/07/30 09:45:33;;;;;;;2.80;1.40;;;23.70;76.60;;;;;;2524354;54;21778;-74
2023/07/30 09:47:59;;;;;;;3.78;1.45;;;23.70;76.40;;;;;;2516932;54;21057;-73
2023/07/30 09:50:27;;;;;;;2.53;1.20;;;23.70;76.60;;;;;;2494767;54;21013;-73
2023/07/30 09:52:58;;;;;;;2.62;1.20;;;23.70;76.40;;;;;;2511004;54;20995;-73
2023/07/30 09:55:24;;;;;;;3.22;1.40;;;23.70;76.20;;;;;;2275627;55;20997;-73
2023/07/30 09:57:51;;;;;;;2.10;1.10;;;23.80;76.10;;;;;;2524018;54;20972;-77
2023/07/30 10:00:21;;;;;;;2.87;1.48;;;23.80;75.70;;;;;;2290691;55;20952;-75
2023/07/30 10:02:49;;;;;;;4.25;1.70;;;23.80;75.40;;;;;;2527425;54;21784;-76
2023/07/30 10:05:19;;;;;;;2.75;1.48;;;23.70;75.30;;;;;;2291779;55;21794;-75
2023/07/30 10:07:58;;;;;;;3.12;1.50;;;23.70;74.90;;;;;;2292141;55;21440;-74
2023/07/30 10:10:24;;;;;;;2.72;1.50;;;23.80;74.10;;;;;;2292311;55;21794;-75
2023/07/30 10:12:51;;;;;;;3.15;1.60;;;23.70;75.10;;;;;;2292881;55;20906;-76
2023/07/30 10:15:23;;;;;;;3.10;1.80;;;23.70;75.00;;;;;;2292864;55;20960;-74
2023/07/30 10:17:51;;;;;;;2.08;1.12;;;23.70;74.00;;;;;;2525453;54;20972;-74
2023/07/30 10:20:26;;;;;;;3.45;1.60;;;23.70;74.70;;;;;;2526579;54;20924;-74
2023/07/30 10:22:55;;;;;;;3.67;1.40;;;23.70;74.40;;;;;;2292241;55;21435;-77
2023/07/30 10:25:41;;;;;;;5.10;1.65;;;23.70;74.90;;;;;;2506439;54;21585;-78
2023/07/30 10:28:25;;;;;;;5.25;1.60;;;23.70;74.70;;;;;;2527405;54;20904;-75
2023/07/30 10:31:03;;;;;;;2.92;1.37;;;23.70;74.70;;;;;;2527621;54;20935;-76
2023/07/30 10:37:03;;;;;;;2.90;1.50;;;23.70;74.20;;;;;;2292848;55;20928;-77
2023/07/30 10:39:30;;;;;;;3.15;1.20;;;23.70;73.30;;;;;;2527615;54;20951;-74
2023/07/30 10:42:00;;;;;;;3.85;1.12;;;23.70;74.80;;;;;;2291094;55;21280;-71
2023/07/30 10:44:31;;;;;;;2.70;1.40;;;23.60;74.70;;;;;;2526905;54;20910;-76
2023/07/30 10:46:58;;;;;;;3.05;1.55;;;23.60;74.80;;;;;;2285683;55;20950;-73
2023/07/30 10:49:24;;;;;;;3.67;1.67;;;23.60;75.10;;;;;;2502775;54;20913;-76
2023/07/30 10:51:53;;;;;;;3.12;1.60;;;23.60;75.20;;;;;;2289129;55;21077;-75
2023/07/30 10:54:19;;;;;;;2.85;1.50;;;23.60;75.40;;;;;;2507355;54;20993;-75
2023/07/30 10:56:45;;;;;;;2.78;1.65;;;23.70;75.70;;;;;;2526748;54;20960;-71
2023/07/30 10:59:12;;;;;;;2.78;1.55;;;23.70;76.00;;;;;;2291613;55;20912;-75
2023/07/30 11:01:45;;;;;;;2.83;1.40;;;23.70;76.30;;;;;;2526545;54;21391;-75
2023/07/30 11:04:14;;;;;;;2.70;1.50;;;23.80;76.10;;;;;;2525614;54;21005;-75
2023/07/30 11:06:48;;;;;;;2.78;1.33;;;23.90;76.70;;;;;;2291713;56;20963;-74
2023/07/30 11:09:24;;;;;;;2.72;1.52;;;23.90;76.30;;;;;;2291024;55;20905;-75
2023/07/30 11:11:51;;;;;;;3.20;1.40;;;23.90;76.50;;;;;;2526690;54;21818;-74
2023/07/30 11:14:19;;;;;;;2.90;1.37;;;24.00;76.40;;;;;;2526579;54;21281;-76
2023/07/30 11:16:59;;;;;;;4.62;1.87;;;24.10;76.20;;;;;;2526760;54;20992;-74
2023/07/30 11:19:28;;;;;;;2.70;1.50;;;24.10;75.10;;;;;;2526679;54;21008;-76
2023/07/30 11:21:56;;;;;;;3.25;1.42;;;24.10;76.10;;;;;;2291481;55;20908;-75
2023/07/30 11:24:33;;;;;;;3.45;1.50;;;24.10;75.70;;;;;;2290670;55;20939;-75
2023/07/30 11:27:00;;;;;;;2.87;1.52;;;24.20;75.80;;;;;;2526148;54;21047;-76
2023/07/30 11:29:27;;;;;;;4.25;1.80;;;24.20;75.70;;;;;;2291410;55;20932;-76
2023/07/30 11:31:59;;;;;;;2.95;1.50;;;24.20;75.60;;;;;;2519002;54;20986;-78
2023/07/30 11:34:35;;;;;;;3.15;1.55;;;24.30;75.10;;;;;;2508754;54;20948;-78
2023/07/30 11:37:05;;;;;;;3.05;1.62;;;24.30;75.50;;;;;;2291938;56;21440;-78
2023/07/30 11:39:32;;;;;;;2.90;1.50;;;24.30;75.40;;;;;;2274334;55;21029;-77
2023/07/30 11:41:58;;;;;;;2.65;1.48;;;24.30;75.40;;;;;;2523726;54;21674;-75
2023/07/30 11:44:46;;;;;;;3.87;1.60;;;24.40;76.20;;;;;;2524838;54;21005;-74
2023/07/30 11:47:21;;;;;;;2.62;1.50;;;24.40;74.20;;;;;;2527305;54;20984;-74
2023/07/30 11:49:57;;;;;;;3.05;1.65;;;24.40;74.70;;;;;;2292516;55;20996;-75
2023/07/30 11:52:23;;;;;;;3.03;1.58;;;24.50;74.50;;;;;;2527592;54;21762;-75
2023/07/30 11:55:04;;;;;;;3.10;1.70;;;24.60;75.80;;;;;;2527606;54;20928;-73
2023/07/30 11:57:34;;;;;;;3.90;1.60;;;24.60;74.30;;;;;;2522899;54;20972;-76
2023/07/30 12:00:01;;;;;;;3.45;1.37;;;24.60;74.70;;;;;;2527271;54;21007;-73
2023/07/30 12:02:29;;;;;;;3.30;1.42;;;24.70;75.20;;;;;;2527127;54;20932;-79
2023/07/30 12:04:59;;;;;;;3.20;1.30;;;24.70;75.00;;;;;;2290107;55;20937;-77
2023/07/30 12:07:34;;;;;;;2.62;1.20;;;24.70;74.50;;;;;;2527535;54;20925;-78
2023/07/30 12:10:12;;;;;;;2.90;1.52;;;24.80;74.70;;;;;;2527690;54;20900;-80
2023/07/30 12:12:45;;;;;;;3.00;1.70;;;24.80;73.70;;;;;;2291865;55;20948;-79
2023/07/30 12:15:13;;;;;;;3.90;1.42;;;24.80;73.70;;;;;;2524549;54;20933;-76
2023/07/30 12:17:39;;;;;;;2.72;1.48;;;24.80;74.50;;;;;;2292182;55;21000;-76
2023/07/30 12:20:10;;;;;;;3.08;1.27;;;24.80;74.30;;;;;;2527247;54;20984;-76
2023/07/30 12:22:38;;;;;;;3.37;1.58;;;24.80;74.30;;;;;;2527901;54;20904;-72
2023/07/30 12:25:05;;;;;;;2.87;1.55;;;24.80;74.20;;;;;;2524274;54;20914;-73
2023/07/30 12:27:31;;;;;;;2.47;1.30;;;24.80;74.30;;;;;;2527898;54;20964;-77
2023/07/30 12:29:57;;;;;;;2.60;1.30;;;24.80;74.40;;;;;;2527229;54;21722;-76
2023/07/30 12:32:27;;;;;;;2.40;1.40;;;24.90;74.50;;;;;;2527475;54;22010;-76
2023/07/30 12:34:54;;;;;;;2.67;1.40;;;24.90;74.60;;;;;;2527258;54;20996;-75
2023/07/30 12:37:20;;;;;;;2.72;1.12;;;24.90;74.70;;;;;;2506214;54;20954;-76
2023/07/30 12:39:48;;;;;;;3.05;1.30;;;25.00;74.80;;;;;;2521545;54;21000;-77
2023/07/30 12:42:14;;;;;;;2.87;1.37;;;25.00;74.80;;;;;;2526922;54;20992;-74
2023/07/30 12:44:43;;;;;;;2.53;1.27;;;25.00;74.60;;;;;;2494572;54;20974;-76
2023/07/30 12:47:09;;;;;;;3.28;1.40;;;25.10;74.50;;;;;;2525101;54;20972;-74
2023/07/30 12:49:36;;;;;;;3.60;1.30;;;25.10;74.40;;;;;;2293819;55;20980;-72
2023/07/30 12:52:02;;;;;;;2.58;1.27;;;25.10;73.90;;;;;;2271418;55;20980;-74
2023/07/30 12:54:29;;;;;;;3.40;1.02;;;25.10;73.50;;;;;;2291450;55;20965;-74